LFMA weather

Aix-en-Provence (BA 114) Airport
Aix Les Milles, Provence-Alpes-Côte-d'Azur, France

Public forecast

Using degrees Celsius for public forecast. Weather courtesy of forecast.io.

METAR (pilot weather report)

Closest report is Marseille Provence Airport, 7.5 nm (13.9 km) WSW. Retrieved 2019/07/17 11:30 UTC (14 minutes ago):

LFML 171130Z AUTO 25006KT CAVOK 31/14 Q1012 NOSIG

TAF (pilot weather forecast)

Closest forecast is Marseille Provence Airport, 7.5 nm (13.9 km) WSW. Retrieved 2019/07/17 09:24 UTC (2 hours ago):

TAF TAF LFML 170800Z 1709/1815 26005KT CAVOK TX32/1815Z TN21/1803Z BECMG 1710/1712 20015KT BECMG 1718/1720 12005KT BECMG 1805/1807 VRB05KT BECMG 1810/1812 20015KT